sensor_id;sensor_type;location;lat;lon;timestamp;temperature;humidity
54788;DHT22;59598;48.112;16.280;2023-09-07T00:00:06;14.90;99.90
54788;DHT22;59598;48.112;16.280;2023-09-07T00:02:41;14.90;99.90
54788;DHT22;59598;48.112;16.280;2023-09-07T00:05:13;14.90;99.90
54788;DHT22;59598;48.112;16.280;2023-09-07T00:07:47;14.90;99.90
54788;DHT22;59598;48.112;16.280;2023-09-07T00:10:18;14.90;99.90
54788;DHT22;59598;48.112;16.280;2023-09-07T00:12:49;14.90;99.90
54788;DHT22;59598;48.112;16.280;2023-09-07T00:15:21;14.90;99.90
54788;DHT22;59598;48.112;16.280;2023-09-07T00:17:55;14.90;99.90
54788;DHT22;59598;48.112;16.280;2023-09-07T00:20:29;14.80;99.90
54788;DHT22;59598;48.112;16.280;2023-09-07T00:23:01;14.80;99.90
54788;DHT22;59598;48.112;16.280;2023-09-07T00:25:32;14.80;99.90
54788;DHT22;59598;48.112;16.280;2023-09-07T00:28:04;14.80;99.90
54788;DHT22;59598;48.112;16.280;2023-09-07T00:30:38;14.70;99.90
54788;DHT22;59598;48.112;16.280;2023-09-07T00:33:12;14.70;99.90
54788;DHT22;59598;48.112;16.280;2023-09-07T00:35:46;14.60;99.90
54788;DHT22;59598;48.112;16.280;2023-09-07T00:38:20;14.60;99.90
54788;DHT22;59598;48.112;16.280;2023-09-07T00:40:52;14.50;99.90
54788;DHT22;59598;48.112;16.280;2023-09-07T00:43:23;14.40;99.90
54788;DHT22;59598;48.112;16.280;2023-09-07T00:45:59;14.30;99.90
54788;DHT22;59598;48.112;16.280;2023-09-07T00:48:30;14.30;99.90
54788;DHT22;59598;48.112;16.280;2023-09-07T00:51:01;14.40;99.90
54788;DHT22;59598;48.112;16.280;2023-09-07T00:53:33;14.40;99.90
54788;DHT22;59598;48.112;16.280;2023-09-07T00:56:09;14.40;99.90
54788;DHT22;59598;48.112;16.280;2023-09-07T00:58:42;14.40;99.90
54788;DHT22;59598;48.112;16.280;2023-09-07T01:01:14;14.40;99.90
54788;DHT22;59598;48.112;16.280;2023-09-07T01:03:47;14.40;99.90
54788;DHT22;59598;48.112;16.280;2023-09-07T01:06:25;14.40;99.90
54788;DHT22;59598;48.112;16.280;2023-09-07T01:09:03;14.40;99.90
54788;DHT22;59598;48.112;16.280;2023-09-07T01:11:37;14.30;99.90
54788;DHT22;59598;48.112;16.280;2023-09-07T01:14:10;14.30;99.90
54788;DHT22;59598;48.112;16.280;2023-09-07T01:16:44;14.30;99.90
54788;DHT22;59598;48.112;16.280;2023-09-07T01:19:16;14.30;99.90
54788;DHT22;59598;48.112;16.280;2023-09-07T01:21:47;14.30;99.90
54788;DHT22;59598;48.112;16.280;2023-09-07T01:24:20;14.40;99.90
54788;DHT22;59598;48.112;16.280;2023-09-07T01:26:52;14.40;99.90
54788;DHT22;59598;48.112;16.280;2023-09-07T01:29:24;14.30;99.90
54788;DHT22;59598;48.112;16.280;2023-09-07T01:31:57;14.30;99.90
54788;DHT22;59598;48.112;16.280;2023-09-07T01:34:29;14.30;99.90
54788;DHT22;59598;48.112;16.280;2023-09-07T01:37:00;14.30;99.90
54788;DHT22;59598;48.112;16.280;2023-09-07T01:39:33;14.30;99.90
54788;DHT22;59598;48.112;16.280;2023-09-07T01:42:04;14.30;99.90
54788;DHT22;59598;48.112;16.280;2023-09-07T01:44:37;14.40;99.90
54788;DHT22;59598;48.112;16.280;2023-09-07T01:47:09;14.30;99.90
54788;DHT22;59598;48.112;16.280;2023-09-07T01:49:43;14.30;99.90
54788;DHT22;59598;48.112;16.280;2023-09-07T01:52:14;14.30;99.90
54788;DHT22;59598;48.112;16.280;2023-09-07T01:54:45;14.30;99.90
54788;DHT22;59598;48.112;16.280;2023-09-07T01:57:19;14.30;99.90
54788;DHT22;59598;48.112;16.280;2023-09-07T01:59:53;14.40;99.90
54788;DHT22;59598;48.112;16.280;2023-09-07T02:02:25;14.30;99.90
54788;DHT22;59598;48.112;16.280;2023-09-07T02:05:01;14.30;99.90
54788;DHT22;59598;48.112;16.280;2023-09-07T02:07:39;14.20;99.90
54788;DHT22;59598;48.112;16.280;2023-09-07T02:10:14;14.20;99.90
54788;DHT22;59598;48.112;16.280;2023-09-07T02:12:46;14.10;99.90
54788;DHT22;59598;48.112;16.280;2023-09-07T02:15:17;14.00;99.90
54788;DHT22;59598;48.112;16.280;2023-09-07T02:17:53;14.00;99.90
54788;DHT22;59598;48.112;16.280;2023-09-07T02:20:28;14.00;99.90
54788;DHT22;59598;48.112;16.280;2023-09-07T02:23:06;13.90;99.90
54788;DHT22;59598;48.112;16.280;2023-09-07T02:25:38;13.90;99.90
54788;DHT22;59598;48.112;16.280;2023-09-07T02:28:14;13.80;99.90
54788;DHT22;59598;48.112;16.280;2023-09-07T02:30:47;13.70;99.90
54788;DHT22;59598;48.112;16.280;2023-09-07T02:33:25;13.60;99.90
54788;DHT22;59598;48.112;16.280;2023-09-07T02:35:57;13.60;99.90
54788;DHT22;59598;48.112;16.280;2023-09-07T02:38:31;13.60;99.90
54788;DHT22;59598;48.112;16.280;2023-09-07T02:41:02;13.60;99.90
54788;DHT22;59598;48.112;16.280;2023-09-07T02:43:34;13.60;99.90
54788;DHT22;59598;48.112;16.280;2023-09-07T02:46:07;13.70;99.90
54788;DHT22;59598;48.112;16.280;2023-09-07T02:48:39;13.70;99.90
54788;DHT22;59598;48.112;16.280;2023-09-07T02:51:12;13.80;99.90
54788;DHT22;59598;48.112;16.280;2023-09-07T02:53:49;13.80;99.90
54788;DHT22;59598;48.112;16.280;2023-09-07T02:56:21;13.90;99.90
54788;DHT22;59598;48.112;16.280;2023-09-07T02:58:56;14.00;99.90
54788;DHT22;59598;48.112;16.280;2023-09-07T03:01:34;14.00;99.90
54788;DHT22;59598;48.112;16.280;2023-09-07T03:04:05;14.00;99.90
54788;DHT22;59598;48.112;16.280;2023-09-07T03:06:41;14.00;99.90
54788;DHT22;59598;48.112;16.280;2023-09-07T03:09:14;14.00;99.90
54788;DHT22;59598;48.112;16.280;2023-09-07T03:11:50;14.00;99.90
54788;DHT22;59598;48.112;16.280;2023-09-07T03:14:26;14.00;99.90
54788;DHT22;59598;48.112;16.280;2023-09-07T03:16:57;14.00;99.90
54788;DHT22;59598;48.112;16.280;2023-09-07T03:19:29;14.00;99.90
54788;DHT22;59598;48.112;16.280;2023-09-07T03:22:01;13.90;99.90
54788;DHT22;59598;48.112;16.280;2023-09-07T03:24:32;13.90;99.90
54788;DHT22;59598;48.112;16.280;2023-09-07T03:27:03;13.90;99.90
54788;DHT22;59598;48.112;16.280;2023-09-07T03:29:38;13.80;99.90
54788;DHT22;59598;48.112;16.280;2023-09-07T03:32:11;13.80;99.90
54788;DHT22;59598;48.112;16.280;2023-09-07T03:34:43;13.70;99.90
54788;DHT22;59598;48.112;16.280;2023-09-07T03:37:18;13.70;99.90
54788;DHT22;59598;48.112;16.280;2023-09-07T03:39:51;13.70;99.90
54788;DHT22;59598;48.112;16.280;2023-09-07T03:42:26;13.60;99.90
54788;DHT22;59598;48.112;16.280;2023-09-07T03:44:57;13.60;99.90
54788;DHT22;59598;48.112;16.280;2023-09-07T03:47:31;13.70;99.90
54788;DHT22;59598;48.112;16.280;2023-09-07T03:50:05;13.70;99.90
54788;DHT22;59598;48.112;16.280;2023-09-07T03:52:39;13.70;99.90
54788;DHT22;59598;48.112;16.280;2023-09-07T03:55:13;13.70;99.90
54788;DHT22;59598;48.112;16.280;2023-09-07T03:57:47;13.70;99.90
54788;DHT22;59598;48.112;16.280;2023-09-07T04:00:23;13.70;99.90
54788;DHT22;59598;48.112;16.280;2023-09-07T04:02:56;13.60;99.90
54788;DHT22;59598;48.112;16.280;2023-09-07T04:05:27;13.60;99.90
54788;DHT22;59598;48.112;16.280;2023-09-07T04:07:58;13.60;99.90
54788;DHT22;59598;48.112;16.280;2023-09-07T04:10:31;13.50;99.90
54788;DHT22;59598;48.112;16.280;2023-09-07T04:13:03;13.50;99.90
54788;DHT22;59598;48.112;16.280;2023-09-07T04:15:40;13.50;99.90
54788;DHT22;59598;48.112;16.280;2023-09-07T04:18:15;13.50;99.90
54788;DHT22;59598;48.112;16.280;2023-09-07T04:20:47;13.50;99.90
54788;DHT22;59598;48.112;16.280;2023-09-07T04:23:18;13.50;99.90
54788;DHT22;59598;48.112;16.280;2023-09-07T04:26:07;13.50;99.90
54788;DHT22;59598;48.112;16.280;2023-09-07T04:28:38;13.50;99.90
54788;DHT22;59598;48.112;16.280;2023-09-07T04:31:13;13.60;99.90
54788;DHT22;59598;48.112;16.280;2023-09-07T04:33:47;13.70;99.90
54788;DHT22;59598;48.112;16.280;2023-09-07T04:36:18;13.60;99.90
54788;DHT22;59598;48.112;16.280;2023-09-07T04:38:53;13.70;99.90
54788;DHT22;59598;48.112;16.280;2023-09-07T04:41:24;13.70;99.90
54788;DHT22;59598;48.112;16.280;2023-09-07T04:43:57;13.80;99.90
54788;DHT22;59598;48.112;16.280;2023-09-07T04:46:28;13.80;99.90
54788;DHT22;59598;48.112;16.280;2023-09-07T04:48:59;13.90;99.90
54788;DHT22;59598;48.112;16.280;2023-09-07T04:51:33;13.90;99.90
54788;DHT22;59598;48.112;16.280;2023-09-07T04:54:04;14.10;99.90
54788;DHT22;59598;48.112;16.280;2023-09-07T04:56:36;14.20;99.90
54788;DHT22;59598;48.112;16.280;2023-09-07T04:59:07;14.30;99.90
54788;DHT22;59598;48.112;16.280;2023-09-07T05:01:41;14.50;99.90
54788;DHT22;59598;48.112;16.280;2023-09-07T05:04:12;14.70;99.90
54788;DHT22;59598;48.112;16.280;2023-09-07T05:06:49;14.90;99.90
54788;DHT22;59598;48.112;16.280;2023-09-07T05:09:20;15.10;99.90
54788;DHT22;59598;48.112;16.280;2023-09-07T05:11:53;15.20;99.90
54788;DHT22;59598;48.112;16.280;2023-09-07T05:14:30;15.40;99.90
54788;DHT22;59598;48.112;16.280;2023-09-07T05:17:04;15.60;75.10
54788;DHT22;59598;48.112;16.280;2023-09-07T05:19:36;15.70;2.00
54788;DHT22;59598;48.112;16.280;2023-09-07T05:22:09;16.00;1.00
54788;DHT22;59598;48.112;16.280;2023-09-07T05:24:45;16.00;1.00
54788;DHT22;59598;48.112;16.280;2023-09-07T05:27:18;16.20;1.00
54788;DHT22;59598;48.112;16.280;2023-09-07T05:29:52;16.30;1.00
54788;DHT22;59598;48.112;16.280;2023-09-07T05:32:23;16.40;1.00
54788;DHT22;59598;48.112;16.280;2023-09-07T05:34:54;16.50;1.00
54788;DHT22;59598;48.112;16.280;2023-09-07T05:37:28;16.70;1.00
54788;DHT22;59598;48.112;16.280;2023-09-07T05:39:59;16.70;1.00
54788;DHT22;59598;48.112;16.280;2023-09-07T05:42:30;16.90;1.00
54788;DHT22;59598;48.112;16.280;2023-09-07T05:45:02;17.00;1.00
54788;DHT22;59598;48.112;16.280;2023-09-07T05:47:34;17.10;1.00
54788;DHT22;59598;48.112;16.280;2023-09-07T05:50:08;17.30;1.00
54788;DHT22;59598;48.112;16.280;2023-09-07T05:52:40;17.60;1.00
54788;DHT22;59598;48.112;16.280;2023-09-07T05:55:11;17.90;99.90
54788;DHT22;59598;48.112;16.280;2023-09-07T05:57:45;18.30;79.30
54788;DHT22;59598;48.112;16.280;2023-09-07T06:00:16;18.50;8.60
54788;DHT22;59598;48.112;16.280;2023-09-07T06:02:56;18.60;1.00
54788;DHT22;59598;48.112;16.280;2023-09-07T06:05:27;18.80;1.00
54788;DHT22;59598;48.112;16.280;2023-09-07T06:07:58;19.00;1.00
54788;DHT22;59598;48.112;16.280;2023-09-07T06:10:32;19.10;1.00
54788;DHT22;59598;48.112;16.280;2023-09-07T06:13:06;19.40;1.00
54788;DHT22;59598;48.112;16.280;2023-09-07T06:15:41;19.60;1.00
54788;DHT22;59598;48.112;16.280;2023-09-07T06:18:12;19.80;1.00
54788;DHT22;59598;48.112;16.280;2023-09-07T06:20:43;20.10;1.00
54788;DHT22;59598;48.112;16.280;2023-09-07T06:23:17;20.30;99.90
54788;DHT22;59598;48.112;16.280;2023-09-07T06:25:51;20.50;1.00
54788;DHT22;59598;48.112;16.280;2023-09-07T06:28:25;20.60;1.00
54788;DHT22;59598;48.112;16.280;2023-09-07T06:30:59;20.80;1.00
54788;DHT22;59598;48.112;16.280;2023-09-07T06:33:36;20.90;1.00
54788;DHT22;59598;48.112;16.280;2023-09-07T06:36:07;21.20;1.00
54788;DHT22;59598;48.112;16.280;2023-09-07T06:38:41;21.40;1.00
54788;DHT22;59598;48.112;16.280;2023-09-07T06:41:12;21.60;1.00
54788;DHT22;59598;48.112;16.280;2023-09-07T06:43:45;21.60;1.00
54788;DHT22;59598;48.112;16.280;2023-09-07T06:46:19;21.60;1.00
54788;DHT22;59598;48.112;16.280;2023-09-07T06:48:52;21.60;1.00
54788;DHT22;59598;48.112;16.280;2023-09-07T06:51:24;21.60;1.00
54788;DHT22;59598;48.112;16.280;2023-09-07T06:53:55;21.70;1.00
54788;DHT22;59598;48.112;16.280;2023-09-07T06:56:26;21.70;1.00
54788;DHT22;59598;48.112;16.280;2023-09-07T06:58:57;21.80;1.00
54788;DHT22;59598;48.112;16.280;2023-09-07T07:01:28;21.90;1.00
54788;DHT22;59598;48.112;16.280;2023-09-07T07:03:59;22.00;1.00
54788;DHT22;59598;48.112;16.280;2023-09-07T07:06:33;21.90;99.90
54788;DHT22;59598;48.112;16.280;2023-09-07T07:09:05;22.00;99.90
54788;DHT22;59598;48.112;16.280;2023-09-07T07:11:36;22.10;43.10
54788;DHT22;59598;48.112;16.280;2023-09-07T07:14:12;22.20;1.00
54788;DHT22;59598;48.112;16.280;2023-09-07T07:16:45;22.40;1.00
54788;DHT22;59598;48.112;16.280;2023-09-07T07:19:19;22.60;1.00
54788;DHT22;59598;48.112;16.280;2023-09-07T07:21:51;22.40;1.00
54788;DHT22;59598;48.112;16.280;2023-09-07T07:24:24;22.40;1.00
54788;DHT22;59598;48.112;16.280;2023-09-07T07:26:59;22.60;1.00
54788;DHT22;59598;48.112;16.280;2023-09-07T07:29:32;22.50;1.00
54788;DHT22;59598;48.112;16.280;2023-09-07T07:32:06;23.00;1.00
54788;DHT22;59598;48.112;16.280;2023-09-07T07:34:37;23.40;1.00
54788;DHT22;59598;48.112;16.280;2023-09-07T07:37:08;23.80;1.00
54788;DHT22;59598;48.112;16.280;2023-09-07T07:39:42;23.50;99.90
54788;DHT22;59598;48.112;16.280;2023-09-07T07:42:13;23.50;95.80
54788;DHT22;59598;48.112;16.280;2023-09-07T07:44:49;23.80;1.00
54788;DHT22;59598;48.112;16.280;2023-09-07T07:47:22;24.10;99.90
54788;DHT22;59598;48.112;16.280;2023-09-07T07:49:59;23.90;99.90
54788;DHT22;59598;48.112;16.280;2023-09-07T07:52:36;24.10;99.90
54788;DHT22;59598;48.112;16.280;2023-09-07T07:55:08;24.30;1.00
54788;DHT22;59598;48.112;16.280;2023-09-07T07:57:39;24.50;99.90
54788;DHT22;59598;48.112;16.280;2023-09-07T08:00:11;24.60;99.90
54788;DHT22;59598;48.112;16.280;2023-09-07T08:02:44;24.70;99.90
54788;DHT22;59598;48.112;16.280;2023-09-07T08:05:21;24.70;99.90
54788;DHT22;59598;48.112;16.280;2023-09-07T08:07:55;24.80;1.00
54788;DHT22;59598;48.112;16.280;2023-09-07T08:10:33;24.90;99.90
54788;DHT22;59598;48.112;16.280;2023-09-07T08:13:05;25.00;99.90
54788;DHT22;59598;48.112;16.280;2023-09-07T08:15:36;25.30;47.00
54788;DHT22;59598;48.112;16.280;2023-09-07T08:18:08;25.40;1.00
54788;DHT22;59598;48.112;16.280;2023-09-07T08:20:40;25.40;1.00
54788;DHT22;59598;48.112;16.280;2023-09-07T08:23:14;25.50;1.00
54788;DHT22;59598;48.112;16.280;2023-09-07T08:25:48;25.30;1.00
54788;DHT22;59598;48.112;16.280;2023-09-07T08:28:19;25.40;1.00
54788;DHT22;59598;48.112;16.280;2023-09-07T08:30:53;25.70;1.00
54788;DHT22;59598;48.112;16.280;2023-09-07T08:33:28;26.00;1.00
54788;DHT22;59598;48.112;16.280;2023-09-07T08:36:06;25.50;99.90
54788;DHT22;59598;48.112;16.280;2023-09-07T08:38:39;25.60;99.90
54788;DHT22;59598;48.112;16.280;2023-09-07T08:41:11;25.70;99.90
54788;DHT22;59598;48.112;16.280;2023-09-07T08:43:45;25.50;99.90
54788;DHT22;59598;48.112;16.280;2023-09-07T08:46:20;25.30;96.30
54788;DHT22;59598;48.112;16.280;2023-09-07T08:48:52;25.50;67.00
54788;DHT22;59598;48.112;16.280;2023-09-07T08:51:26;25.60;60.90
54788;DHT22;59598;48.112;16.280;2023-09-07T08:54:00;25.70;4.30
54788;DHT22;59598;48.112;16.280;2023-09-07T08:56:36;25.70;99.90
54788;DHT22;59598;48.112;16.280;2023-09-07T08:59:10;25.90;99.90
54788;DHT22;59598;48.112;16.280;2023-09-07T09:01:41;25.90;1.00
54788;DHT22;59598;48.112;16.280;2023-09-07T09:04:16;26.40;1.00
54788;DHT22;59598;48.112;16.280;2023-09-07T09:06:47;26.50;1.00
54788;DHT22;59598;48.112;16.280;2023-09-07T09:09:22;26.90;1.00
54788;DHT22;59598;48.112;16.280;2023-09-07T09:12:26;27.00;1.00
54788;DHT22;59598;48.112;16.280;2023-09-07T09:14:59;26.90;1.00
54788;DHT22;59598;48.112;16.280;2023-09-07T09:17:34;26.90;99.90
54788;DHT22;59598;48.112;16.280;2023-09-07T09:20:20;27.20;1.00
54788;DHT22;59598;48.112;16.280;2023-09-07T09:22:55;27.00;99.90
54788;DHT22;59598;48.112;16.280;2023-09-07T09:25:31;27.40;99.90
54788;DHT22;59598;48.112;16.280;2023-09-07T09:28:02;27.80;99.90
54788;DHT22;59598;48.112;16.280;2023-09-07T09:30:34;28.00;99.90
54788;DHT22;59598;48.112;16.280;2023-09-07T09:33:06;28.10;99.90
54788;DHT22;59598;48.112;16.280;2023-09-07T09:35:38;28.00;89.40
54788;DHT22;59598;48.112;16.280;2023-09-07T09:38:10;27.80;18.20
54788;DHT22;59598;48.112;16.280;2023-09-07T09:40:41;27.80;16.90
54788;DHT22;59598;48.112;16.280;2023-09-07T09:43:20;28.20;1.00
54788;DHT22;59598;48.112;16.280;2023-09-07T09:45:52;28.00;1.00
54788;DHT22;59598;48.112;16.280;2023-09-07T09:48:27;28.20;1.00
54788;DHT22;59598;48.112;16.280;2023-09-07T09:50:59;28.50;1.00
54788;DHT22;59598;48.112;16.280;2023-09-07T09:53:31;28.30;1.00
54788;DHT22;59598;48.112;16.280;2023-09-07T09:56:08;28.40;1.00
54788;DHT22;59598;48.112;16.280;2023-09-07T09:58:40;29.00;1.00
54788;DHT22;59598;48.112;16.280;2023-09-07T10:01:12;29.20;1.00
54788;DHT22;59598;48.112;16.280;2023-09-07T10:03:48;29.00;1.00
54788;DHT22;59598;48.112;16.280;2023-09-07T10:06:28;29.80;1.00
54788;DHT22;59598;48.112;16.280;2023-09-07T10:09:05;29.80;1.00
54788;DHT22;59598;48.112;16.280;2023-09-07T10:11:41;29.20;1.00
54788;DHT22;59598;48.112;16.280;2023-09-07T10:14:15;30.00;1.00
54788;DHT22;59598;48.112;16.280;2023-09-07T10:16:52;30.10;1.00
54788;DHT22;59598;48.112;16.280;2023-09-07T10:19:26;31.30;1.00
54788;DHT22;59598;48.112;16.280;2023-09-07T10:21:58;32.40;1.00
54788;DHT22;59598;48.112;16.280;2023-09-07T10:24:29;33.10;1.00
54788;DHT22;59598;48.112;16.280;2023-09-07T10:27:08;32.60;1.00
54788;DHT22;59598;48.112;16.280;2023-09-07T10:29:50;32.60;99.90
54788;DHT22;59598;48.112;16.280;2023-09-07T10:32:24;32.50;99.90
54788;DHT22;59598;48.112;16.280;2023-09-07T10:34:56;32.90;99.90
54788;DHT22;59598;48.112;16.280;2023-09-07T10:37:30;33.70;99.90
54788;DHT22;59598;48.112;16.280;2023-09-07T10:40:02;33.40;99.90
54788;DHT22;59598;48.112;16.280;2023-09-07T10:42:34;33.90;99.90
54788;DHT22;59598;48.112;16.280;2023-09-07T10:45:13;34.00;99.90
54788;DHT22;59598;48.112;16.280;2023-09-07T10:47:47;34.40;99.90
54788;DHT22;59598;48.112;16.280;2023-09-07T10:50:20;34.50;81.70
54788;DHT22;59598;48.112;16.280;2023-09-07T10:52:54;34.40;56.30
54788;DHT22;59598;48.112;16.280;2023-09-07T10:55:28;33.60;40.60
54788;DHT22;59598;48.112;16.280;2023-09-07T10:57:59;34.00;76.70
54788;DHT22;59598;48.112;16.280;2023-09-07T11:00:30;34.10;22.90
54788;DHT22;59598;48.112;16.280;2023-09-07T11:03:08;34.70;1.00
54788;DHT22;59598;48.112;16.280;2023-09-07T11:05:43;34.60;1.00
54788;DHT22;59598;48.112;16.280;2023-09-07T11:08:14;35.30;1.00
54788;DHT22;59598;48.112;16.280;2023-09-07T11:10:45;35.70;1.00
54788;DHT22;59598;48.112;16.280;2023-09-07T11:13:17;35.10;1.00
54788;DHT22;59598;48.112;16.280;2023-09-07T11:15:48;35.30;1.00
54788;DHT22;59598;48.112;16.280;2023-09-07T11:18:23;35.90;1.00
54788;DHT22;59598;48.112;16.280;2023-09-07T11:20:56;35.40;1.00
54788;DHT22;59598;48.112;16.280;2023-09-07T11:23:33;35.40;1.00
54788;DHT22;59598;48.112;16.280;2023-09-07T11:26:11;35.60;1.00
54788;DHT22;59598;48.112;16.280;2023-09-07T11:28:44;36.10;1.00
54788;DHT22;59598;48.112;16.280;2023-09-07T11:31:20;36.20;1.00
54788;DHT22;59598;48.112;16.280;2023-09-07T11:33:54;36.10;1.00
54788;DHT22;59598;48.112;16.280;2023-09-07T11:36:27;35.90;1.00
54788;DHT22;59598;48.112;16.280;2023-09-07T11:38:58;36.00;1.00
54788;DHT22;59598;48.112;16.280;2023-09-07T11:41:42;36.20;1.00
54788;DHT22;59598;48.112;16.280;2023-09-07T11:44:14;36.80;1.00
54788;DHT22;59598;48.112;16.280;2023-09-07T11:46:45;37.40;1.00
54788;DHT22;59598;48.112;16.280;2023-09-07T11:49:19;37.90;1.00
54788;DHT22;59598;48.112;16.280;2023-09-07T11:51:52;36.00;1.00
54788;DHT22;59598;48.112;16.280;2023-09-07T11:54:23;34.90;1.00
54788;DHT22;59598;48.112;16.280;2023-09-07T11:56:54;35.10;1.00
54788;DHT22;59598;48.112;16.280;2023-09-07T11:59:25;36.00;1.00
54788;DHT22;59598;48.112;16.280;2023-09-07T12:02:01;36.10;1.00
54788;DHT22;59598;48.112;16.280;2023-09-07T12:04:35;35.20;1.00
54788;DHT22;59598;48.112;16.280;2023-09-07T12:07:08;35.00;1.00
54788;DHT22;59598;48.112;16.280;2023-09-07T12:09:42;35.50;1.00
54788;DHT22;59598;48.112;16.280;2023-09-07T12:12:13;35.90;1.00
54788;DHT22;59598;48.112;16.280;2023-09-07T12:14:47;36.40;1.00
54788;DHT22;59598;48.112;16.280;2023-09-07T12:17:18;35.50;1.00
54788;DHT22;59598;48.112;16.280;2023-09-07T12:19:53;35.20;1.00
54788;DHT22;59598;48.112;16.280;2023-09-07T12:22:24;36.20;1.00
54788;DHT22;59598;48.112;16.280;2023-09-07T12:24:58;36.00;1.00
54788;DHT22;59598;48.112;16.280;2023-09-07T12:27:29;35.70;1.00
54788;DHT22;59598;48.112;16.280;2023-09-07T12:30:03;36.10;1.00
54788;DHT22;59598;48.112;16.280;2023-09-07T12:32:43;36.50;1.00
54788;DHT22;59598;48.112;16.280;2023-09-07T12:35:17;37.10;1.00
54788;DHT22;59598;48.112;16.280;2023-09-07T12:37:50;36.60;1.00
54788;DHT22;59598;48.112;16.280;2023-09-07T12:40:21;36.60;1.00
54788;DHT22;59598;48.112;16.280;2023-09-07T12:42:53;35.60;1.00
54788;DHT22;59598;48.112;16.280;2023-09-07T12:45:25;36.00;1.00
54788;DHT22;59598;48.112;16.280;2023-09-07T12:47:57;36.50;1.00
54788;DHT22;59598;48.112;16.280;2023-09-07T12:50:32;37.20;1.00
54788;DHT22;59598;48.112;16.280;2023-09-07T12:53:03;36.80;1.00
54788;DHT22;59598;48.112;16.280;2023-09-07T12:55:35;36.10;1.00
54788;DHT22;59598;48.112;16.280;2023-09-07T12:58:06;35.40;1.00
54788;DHT22;59598;48.112;16.280;2023-09-07T13:00:37;36.10;1.00
54788;DHT22;59598;48.112;16.280;2023-09-07T13:03:10;36.10;1.00
54788;DHT22;59598;48.112;16.280;2023-09-07T13:05:48;35.50;1.00
54788;DHT22;59598;48.112;16.280;2023-09-07T13:08:24;35.40;1.00
54788;DHT22;59598;48.112;16.280;2023-09-07T13:10:55;35.60;1.00
54788;DHT22;59598;48.112;16.280;2023-09-07T13:13:30;35.60;1.00
54788;DHT22;59598;48.112;16.280;2023-09-07T13:16:04;35.90;1.00
54788;DHT22;59598;48.112;16.280;2023-09-07T13:18:35;36.00;1.00
54788;DHT22;59598;48.112;16.280;2023-09-07T13:21:09;35.60;1.00
54788;DHT22;59598;48.112;16.280;2023-09-07T13:23:42;35.20;1.00
54788;DHT22;59598;48.112;16.280;2023-09-07T13:26:17;34.90;1.00
54788;DHT22;59598;48.112;16.280;2023-09-07T13:28:48;35.80;1.00
54788;DHT22;59598;48.112;16.280;2023-09-07T13:31:19;34.70;1.00
54788;DHT22;59598;48.112;16.280;2023-09-07T13:33:51;34.80;1.00
54788;DHT22;59598;48.112;16.280;2023-09-07T13:36:27;34.40;1.00
54788;DHT22;59598;48.112;16.280;2023-09-07T13:39:02;34.50;1.00
54788;DHT22;59598;48.112;16.280;2023-09-07T13:41:38;35.10;1.00
54788;DHT22;59598;48.112;16.280;2023-09-07T13:44:13;36.10;1.00
54788;DHT22;59598;48.112;16.280;2023-09-07T13:46:45;36.70;1.00
54788;DHT22;59598;48.112;16.280;2023-09-07T13:49:16;36.50;1.00
54788;DHT22;59598;48.112;16.280;2023-09-07T13:51:47;36.10;1.00
54788;DHT22;59598;48.112;16.280;2023-09-07T13:54:18;35.90;1.00
54788;DHT22;59598;48.112;16.280;2023-09-07T13:56:52;35.90;1.00
54788;DHT22;59598;48.112;16.280;2023-09-07T13:59:23;36.20;1.00
54788;DHT22;59598;48.112;16.280;2023-09-07T14:01:59;36.40;1.00
54788;DHT22;59598;48.112;16.280;2023-09-07T14:04:33;36.60;1.00
54788;DHT22;59598;48.112;16.280;2023-09-07T14:07:05;36.70;1.00
54788;DHT22;59598;48.112;16.280;2023-09-07T14:09:36;36.80;1.00
54788;DHT22;59598;48.112;16.280;2023-09-07T14:12:07;35.90;1.00
54788;DHT22;59598;48.112;16.280;2023-09-07T14:14:44;35.40;1.00
54788;DHT22;59598;48.112;16.280;2023-09-07T14:17:17;35.20;1.00
54788;DHT22;59598;48.112;16.280;2023-09-07T14:19:48;34.90;1.00
54788;DHT22;59598;48.112;16.280;2023-09-07T14:22:19;34.90;1.00
54788;DHT22;59598;48.112;16.280;2023-09-07T14:24:53;34.50;1.00
54788;DHT22;59598;48.112;16.280;2023-09-07T14:27:24;34.00;1.00
54788;DHT22;59598;48.112;16.280;2023-09-07T14:29:57;34.30;1.00
54788;DHT22;59598;48.112;16.280;2023-09-07T14:32:28;35.00;1.00
54788;DHT22;59598;48.112;16.280;2023-09-07T14:34:59;35.20;1.00
54788;DHT22;59598;48.112;16.280;2023-09-07T14:37:30;34.10;1.00
54788;DHT22;59598;48.112;16.280;2023-09-07T14:40:01;34.20;1.00
54788;DHT22;59598;48.112;16.280;2023-09-07T14:42:33;34.20;1.00
54788;DHT22;59598;48.112;16.280;2023-09-07T14:45:05;33.50;1.00
54788;DHT22;59598;48.112;16.280;2023-09-07T14:47:40;33.70;1.00
54788;DHT22;59598;48.112;16.280;2023-09-07T14:50:12;33.70;1.00
54788;DHT22;59598;48.112;16.280;2023-09-07T14:52:43;34.40;1.00
54788;DHT22;59598;48.112;16.280;2023-09-07T14:55:19;35.30;1.00
54788;DHT22;59598;48.112;16.280;2023-09-07T14:57:55;34.70;1.00
54788;DHT22;59598;48.112;16.280;2023-09-07T15:00:35;33.20;1.00
54788;DHT22;59598;48.112;16.280;2023-09-07T15:03:08;31.50;1.00
54788;DHT22;59598;48.112;16.280;2023-09-07T15:05:40;31.60;1.00
54788;DHT22;59598;48.112;16.280;2023-09-07T15:08:14;32.40;1.00
54788;DHT22;59598;48.112;16.280;2023-09-07T15:10:46;33.20;1.00
54788;DHT22;59598;48.112;16.280;2023-09-07T15:13:19;33.90;1.00
54788;DHT22;59598;48.112;16.280;2023-09-07T15:15:51;33.90;1.00
54788;DHT22;59598;48.112;16.280;2023-09-07T15:18:24;32.90;1.00
54788;DHT22;59598;48.112;16.280;2023-09-07T15:20:58;31.70;1.00
54788;DHT22;59598;48.112;16.280;2023-09-07T15:23:31;31.90;1.00
54788;DHT22;59598;48.112;16.280;2023-09-07T15:26:02;31.80;1.00
54788;DHT22;59598;48.112;16.280;2023-09-07T15:28:37;31.70;1.00
54788;DHT22;59598;48.112;16.280;2023-09-07T15:31:10;31.30;1.00
54788;DHT22;59598;48.112;16.280;2023-09-07T15:33:42;31.50;1.00
54788;DHT22;59598;48.112;16.280;2023-09-07T15:36:14;31.80;1.00
54788;DHT22;59598;48.112;16.280;2023-09-07T15:38:46;31.40;1.00
54788;DHT22;59598;48.112;16.280;2023-09-07T15:41:18;31.90;1.00
54788;DHT22;59598;48.112;16.280;2023-09-07T15:43:50;31.90;1.00
54788;DHT22;59598;48.112;16.280;2023-09-07T15:46:24;31.10;1.00
54788;DHT22;59598;48.112;16.280;2023-09-07T15:48:55;30.60;1.00
54788;DHT22;59598;48.112;16.280;2023-09-07T15:51:31;30.20;1.00
54788;DHT22;59598;48.112;16.280;2023-09-07T15:54:02;29.80;1.00
54788;DHT22;59598;48.112;16.280;2023-09-07T15:56:33;29.20;1.00
54788;DHT22;59598;48.112;16.280;2023-09-07T15:59:05;29.00;1.00
54788;DHT22;59598;48.112;16.280;2023-09-07T16:01:39;28.90;1.00